Time;durP1;ratioP1;P1;durP2;ratioP2;P2;SDS_P1;SDS_P2;PMS_P1;PMS_P2;Temp;Humidity;BMP_temperature;BMP_pressure;BME280_temperature;BME280_humidity;BME280_pressure;Samples;Min_cycle;Max_cycle;Signal;HPM_P1;HPM_P2
2021/12/25 00:00:51;;;;;;;23.20;13.67;;;;;;;-145.18;100.00;47545.34;5047153;28;20354;-71
2021/12/25 00:03:17;;;;;;;24.53;14.33;;;;;;;-145.18;100.00;47549.25;5046694;28;20357;-71
2021/12/25 00:05:48;;;;;;;26.30;13.80;;;;;;;-145.18;100.00;47543.41;5047462;28;20047;-71
2021/12/25 00:08:13;;;;;;;22.43;13.17;;;;;;;-145.18;100.00;47557.06;5046705;28;20477;-71
2021/12/25 00:10:39;;;;;;;23.60;14.13;;;;;;;-145.18;100.00;47549.25;5047282;28;20353;-71
2021/12/25 00:13:04;;;;;;;22.70;13.40;;;;;;;-145.18;100.00;47533.63;5046783;28;20525;-71
2021/12/25 00:15:30;;;;;;;24.07;14.93;;;;;;;-145.18;100.00;47539.50;5047653;28;20057;-71
2021/12/25 00:17:55;;;;;;;22.37;13.53;;;;;;;-145.18;100.00;47551.22;5046858;28;20528;-71
2021/12/25 00:20:21;;;;;;;25.40;15.00;;;;;;;-145.18;100.00;47551.22;5029062;28;20125;-71
2021/12/25 00:22:46;;;;;;;24.40;15.53;;;;;;;-145.18;100.00;47533.63;5046844;28;20074;-71
2021/12/25 00:25:12;;;;;;;26.80;15.27;;;;;;;-145.18;100.00;47547.31;5047184;28;20048;-71
2021/12/25 00:35:14;;;;;;;31.37;15.83;;;;;;;-145.18;100.00;47545.34;5046740;28;20278;-71
2021/12/25 00:37:39;;;;;;;30.17;17.70;;;;;;;-145.18;100.00;47547.31;5046793;28;20254;-71
2021/12/25 00:40:06;;;;;;;33.77;19.10;;;;;;;-145.18;100.00;47551.22;5046517;28;20025;-71
2021/12/25 00:42:32;;;;;;;36.37;19.17;;;;;;;-145.18;100.00;47559.03;5028655;28;20052;-71
2021/12/25 00:44:57;;;;;;;31.33;18.73;;;;;;;-145.18;100.00;47549.25;5045252;28;20282;-71
2021/12/25 00:47:23;;;;;;;31.00;18.03;;;;;;;-145.18;100.00;47539.50;5046810;28;20040;-71
2021/12/25 00:49:48;;;;;;;30.23;19.27;;;;;;;-145.18;100.00;47561.00;5047334;28;20528;-71
2021/12/25 00:52:14;;;;;;;32.77;18.60;;;;;;;-145.18;100.00;47561.00;5046826;28;20391;-71
2021/12/25 00:54:39;;;;;;;33.83;20.27;;;;;;;-145.18;100.00;47561.00;5046094;28;20041;-72
2021/12/25 00:57:05;;;;;;;35.83;18.63;;;;;;;-145.18;100.00;47574.66;5046890;28;20525;-70
2021/12/25 00:59:30;;;;;;;37.27;20.00;;;;;;;-145.18;100.00;47570.75;5046437;28;20037;-71
2021/12/25 01:01:58;;;;;;;39.60;21.33;;;;;;;-145.18;100.00;47570.75;5046422;28;20125;-71
2021/12/25 01:04:23;;;;;;;41.67;23.50;;;;;;;-145.18;100.00;47586.38;5046806;28;20040;-71
2021/12/25 01:06:49;;;;;;;41.43;21.53;;;;;;;-145.18;100.00;47580.53;5047071;28;20658;-71
2021/12/25 01:09:14;;;;;;;39.63;22.73;;;;;;;-145.18;100.00;47574.66;5044758;28;20041;-71
2021/12/25 01:11:42;;;;;;;40.83;22.13;;;;;;;-145.18;100.00;47578.56;5046631;28;20052;-71
2021/12/25 01:14:19;;;;;;;39.97;20.93;;;;;;;-145.18;100.00;47590.28;5046278;28;20037;-71
2021/12/25 01:25:20;;;;;;;35.63;19.63;;;;;;;-145.18;100.00;47617.66;5046230;28;20304;-71
2021/12/25 01:30:43;;;;;;;33.93;17.43;;;;;;;-145.18;100.00;47590.28;5046178;28;20278;-71
2021/12/25 01:35:59;;;;;;;39.60;19.70;;;;;;;-145.18;100.00;47596.16;5046332;28;20635;-71
2021/12/25 01:49:05;;;;;;;31.40;18.13;;;;;;;-145.18;100.00;47592.25;5050055;28;20324;-71
2021/12/25 01:51:31;;;;;;;28.13;15.00;;;;;;;-145.18;100.00;47580.53;5036265;28;20787;-71
2021/12/25 01:53:56;;;;;;;35.43;18.80;;;;;;;-145.18;100.00;47607.88;5029463;28;20829;-70
2021/12/25 01:56:23;;;;;;;31.40;17.57;;;;;;;-145.18;100.00;47574.66;5029653;28;20162;-70
2021/12/25 01:58:48;;;;;;;33.47;16.40;;;;;;;-145.18;100.00;47598.09;5029736;28;20521;-71
2021/12/25 02:01:14;;;;;;;30.73;15.67;;;;;;;-145.18;100.00;47592.25;5029654;28;20271;-71
2021/12/25 02:03:40;;;;;;;29.00;16.57;;;;;;;-145.18;100.00;47594.19;5030089;28;20045;-70
2021/12/25 02:06:08;;;;;;;28.73;14.67;;;;;;;-145.18;100.00;47578.56;5029639;28;20033;-70
2021/12/25 02:08:35;;;;;;;20.30;10.53;;;;;;;-145.18;100.00;47598.09;5029113;28;20299;-70
2021/12/25 02:11:01;;;;;;;25.40;12.57;;;;;;;-145.18;100.00;47600.06;5028194;28;20699;-70
2021/12/25 02:13:26;;;;;;;25.53;14.07;;;;;;;-145.18;100.00;47594.19;5047124;28;20340;-70
2021/12/25 02:15:54;;;;;;;23.03;13.77;;;;;;;-145.18;100.00;47590.28;5049529;28;20274;-70
2021/12/25 02:20:55;;;;;;;24.93;14.67;;;;;;;-145.18;100.00;47617.66;5049412;28;20286;-71
2021/12/25 02:23:23;;;;;;;25.37;14.30;;;;;;;-145.18;100.00;47600.06;5048690;28;20293;-70
2021/12/25 02:25:55;;;;;;;22.40;11.00;;;;;;;-145.18;100.00;47617.66;5049924;28;20277;-70
2021/12/25 02:28:21;;;;;;;23.60;13.97;;;;;;;-145.18;100.00;47603.97;5048877;28;20269;-70
2021/12/25 02:30:51;;;;;;;18.03;9.73;;;;;;;-145.18;100.00;47596.16;5048937;28;20290;-70
2021/12/25 02:33:17;;;;;;;22.27;12.00;;;;;;;-145.18;100.00;47617.66;5048624;28;20262;-70
2021/12/25 02:35:43;;;;;;;19.33;11.43;;;;;;;-145.18;100.00;47609.84;5031164;28;20309;-70
2021/12/25 02:38:09;;;;;;;20.10;11.53;;;;;;;-145.18;100.00;47594.19;5049131;28;20040;-70
2021/12/25 02:40:35;;;;;;;13.80;7.90;;;;;;;-145.18;100.00;47603.97;5048567;28;20263;-70
2021/12/25 02:43:00;;;;;;;15.80;7.97;;;;;;;-145.18;100.00;47609.84;5049266;28;20123;-70
2021/12/25 02:45:26;;;;;;;20.47;11.60;;;;;;;-145.18;100.00;47590.28;5048729;28;20041;-70
2021/12/25 02:47:55;;;;;;;20.60;10.80;;;;;;;-145.18;100.00;47598.09;5048789;28;20240;-70
2021/12/25 02:50:29;;;;;;;17.00;9.43;;;;;;;-145.18;100.00;47600.06;5047847;28;20342;-70
2021/12/25 02:52:57;;;;;;;20.53;11.33;;;;;;;-145.18;100.00;47602.00;5030560;28;20365;-70
2021/12/25 02:55:23;;;;;;;19.33;11.27;;;;;;;-145.18;100.00;47613.75;5048178;28;20300;-70
2021/12/25 02:57:51;;;;;;;15.33;8.53;;;;;;;-145.18;100.00;47613.75;5048749;28;20639;-70
2021/12/25 03:00:28;;;;;;;17.27;10.00;;;;;;;-145.18;100.00;47594.19;5047516;28;20793;-70
2021/12/25 03:02:54;;;;;;;21.70;11.33;;;;;;;-145.18;100.00;47621.56;5048306;28;20261;-70
2021/12/25 03:05:19;;;;;;;20.93;11.90;;;;;;;-145.18;100.00;47629.38;5048010;28;20309;-70
2021/12/25 03:07:45;;;;;;;22.70;10.97;;;;;;;-145.18;100.00;47598.09;5048660;28;20278;-70
2021/12/25 03:10:14;;;;;;;15.67;9.00;;;;;;;-145.18;100.00;47621.56;5047571;28;20120;-70
2021/12/25 03:12:53;;;;;;;12.73;6.37;;;;;;;-145.18;100.00;47613.75;5048338;28;20037;-71
2021/12/25 03:15:28;;;;;;;21.67;11.30;;;;;;;-145.18;100.00;47635.22;5047421;28;20681;-70
2021/12/25 03:17:56;;;;;;;14.82;7.90;;;;;;;-145.18;100.00;47627.41;5030579;28;20847;-70
2021/12/25 03:20:23;;;;;;;23.43;12.43;;;;;;;-145.18;100.00;47621.56;5047366;28;20052;-70
2021/12/25 03:22:49;;;;;;;26.03;13.63;;;;;;;-145.18;100.00;47635.22;5048213;28;20365;-71
2021/12/25 03:25:16;;;;;;;25.77;14.67;;;;;;;-145.18;100.00;47619.59;5047252;28;20353;-70
2021/12/25 03:27:44;;;;;;;24.70;12.30;;;;;;;-145.18;100.00;47611.78;5030069;28;20506;-70
2021/12/25 03:30:10;;;;;;;22.53;11.30;;;;;;;-145.18;100.00;47631.31;5048291;28;20289;-71
2021/12/25 03:32:36;;;;;;;25.67;13.47;;;;;;;-145.18;100.00;47615.69;5047916;28;20274;-71
2021/12/25 03:35:02;;;;;;;26.57;14.00;;;;;;;-145.18;100.00;47635.22;5047217;28;20289;-70
2021/12/25 03:37:27;;;;;;;26.87;15.37;;;;;;;-145.18;100.00;47637.19;5048145;28;20074;-70
2021/12/25 03:39:53;;;;;;;18.80;10.03;;;;;;;-145.18;100.00;47633.28;5047414;28;20341;-70
2021/12/25 03:42:19;;;;;;;23.30;11.87;;;;;;;-145.18;100.00;47637.19;5047097;28;20369;-70
2021/12/25 03:44:46;;;;;;;29.57;14.50;;;;;;;-145.18;100.00;47645.00;5047180;28;20120;-70
2021/12/25 03:47:23;;;;;;;31.27;14.50;;;;;;;-145.18;100.00;47645.00;5031001;28;20041;-70
2021/12/25 03:58:05;;;;;;;36.80;17.83;;;;;;;-145.18;100.00;47652.81;5047447;28;20277;-70
2021/12/25 04:00:32;;;;;;;41.07;19.60;;;;;;;-145.18;100.00;47633.28;5045917;28;20746;-70
2021/12/25 04:03:03;;;;;;;34.67;17.57;;;;;;;-145.18;100.00;47662.59;5046663;28;20689;-70
2021/12/25 04:05:32;;;;;;;43.67;19.70;;;;;;;-145.18;100.00;47641.09;5046695;28;20352;-70
2021/12/25 04:08:04;;;;;;;26.63;11.03;;;;;;;-145.18;100.00;47650.88;5046576;28;20425;-71
2021/12/25 04:10:34;;;;;;;33.23;14.50;;;;;;;-145.18;100.00;47641.09;5046598;28;20274;-70
2021/12/25 04:13:00;;;;;;;36.23;18.23;;;;;;;-145.18;100.00;47617.66;5047303;28;20316;-70
2021/12/25 04:15:25;;;;;;;35.80;17.20;;;;;;;-145.18;100.00;47621.56;5046397;28;20671;-70
2021/12/25 04:17:51;;;;;;;39.10;19.70;;;;;;;-145.18;100.00;47664.53;5047522;28;20127;-70
2021/12/25 04:20:17;;;;;;;30.80;15.60;;;;;;;-145.18;100.00;47668.44;5045654;28;20391;-70
2021/12/25 04:22:53;;;;;;;37.90;19.10;;;;;;;-145.18;100.00;47645.00;5047910;28;20041;-70
2021/12/25 04:25:23;;;;;;;32.95;16.15;;;;;;;-145.18;100.00;47658.69;5046849;28;20289;-70
2021/12/25 04:27:49;;;;;;;36.47;20.00;;;;;;;-145.18;100.00;47633.28;5042465;28;20247;-70
2021/12/25 04:30:34;;;;;;;32.93;16.87;;;;;;;-145.18;100.00;47652.81;5040805;28;21143;-71
2021/12/25 04:50:03;;;;;;;36.03;18.40;;;;;;;-145.18;100.00;47658.69;5036925;28;20358;-70
2021/12/25 05:05:53;;;;;;;39.40;18.33;;;;;;;-145.18;100.00;47658.69;5045899;28;20041;-69
2021/12/25 05:08:19;;;;;;;26.87;12.23;;;;;;;-145.18;100.00;47674.31;5046095;28;20052;-69
2021/12/25 05:10:45;;;;;;;35.13;16.40;;;;;;;-145.18;100.00;47650.88;5045842;28;20263;-69
2021/12/25 05:13:10;;;;;;;38.87;18.63;;;;;;;-145.18;100.00;47672.34;5046719;28;20277;-70
2021/12/25 05:15:36;;;;;;;41.03;18.53;;;;;;;-145.18;100.00;47650.88;5046754;28;20037;-70
2021/12/25 05:18:01;;;;;;;45.10;22.87;;;;;;;-145.18;100.00;47656.72;5037036;28;20254;-70
2021/12/25 05:20:27;;;;;;;38.03;17.57;;;;;;;-145.18;100.00;47660.63;5049510;28;20056;-69
2021/12/25 05:22:52;;;;;;;39.87;16.10;;;;;;;-145.18;100.00;47646.97;5050251;28;20029;-70
2021/12/25 05:25:18;;;;;;;32.47;16.17;;;;;;;-145.18;100.00;47676.25;5049252;28;20104;-69
2021/12/25 05:27:45;;;;;;;29.87;15.07;;;;;;;-145.18;100.00;47654.78;5050440;28;20037;-70
2021/12/25 05:30:11;;;;;;;36.47;15.53;;;;;;;-145.18;100.00;47662.59;5048254;28;20092;-70
2021/12/25 05:32:36;;;;;;;36.27;19.33;;;;;;;-145.18;100.00;47672.34;5050369;28;20316;-69
2021/12/25 05:35:03;;;;;;;36.53;16.50;;;;;;;-145.18;100.00;47676.25;5049622;28;20037;-69
2021/12/25 05:37:29;;;;;;;36.67;18.30;;;;;;;-145.18;100.00;47668.44;5049831;28;20067;-69
2021/12/25 05:39:54;;;;;;;35.15;16.23;;;;;;;-145.18;100.00;47678.22;5049289;28;20274;-69
2021/12/25 05:42:22;;;;;;;31.07;15.03;;;;;;;-145.18;100.00;47668.44;5049281;28;20029;-69
2021/12/25 05:44:48;;;;;;;26.88;12.85;;;;;;;-145.18;100.00;47672.34;5049616;28;20068;-70
2021/12/25 05:47:14;;;;;;;26.53;12.37;;;;;;;-145.18;100.00;47676.25;5050113;28;20106;-70
2021/12/25 05:49:39;;;;;;;27.50;9.43;;;;;;;-145.18;100.00;47672.34;5050136;28;20456;-70
2021/12/25 05:52:05;;;;;;;29.63;14.43;;;;;;;-145.18;100.00;47684.06;5050089;28;20120;-69
2021/12/25 05:54:31;;;;;;;24.52;12.43;;;;;;;-145.18;100.00;47668.44;5048923;28;20037;-70
2021/12/25 05:56:56;;;;;;;30.00;13.73;;;;;;;-145.18;100.00;47687.97;5049822;28;20866;-69
2021/12/25 05:59:22;;;;;;;28.93;14.70;;;;;;;-145.18;100.00;47686.03;5049372;28;20069;-70
2021/12/25 06:01:47;;;;;;;27.17;13.63;;;;;;;-145.18;100.00;47674.31;5049796;28;20040;-70
2021/12/25 06:04:12;;;;;;;18.77;8.50;;;;;;;-145.18;100.00;47699.72;5049917;28;20040;-69
2021/12/25 06:06:38;;;;;;;21.77;11.17;;;;;;;-145.18;100.00;47668.44;5049500;28;20033;-70
2021/12/25 06:09:07;;;;;;;24.97;11.67;;;;;;;-145.18;100.00;47652.81;5049280;28;20441;-70
2021/12/25 06:11:33;;;;;;;22.92;9.27;;;;;;;-145.18;100.00;47668.44;5049518;28;20029;-69
2021/12/25 06:14:09;;;;;;;25.75;12.48;;;;;;;-145.18;100.00;47687.97;5049259;28;20091;-70
2021/12/25 06:16:35;;;;;;;24.20;10.98;;;;;;;-145.18;100.00;47680.16;5030460;28;20041;-70
2021/12/25 06:19:00;;;;;;;26.85;12.82;;;;;;;-145.18;100.00;47701.66;5047342;28;20037;-70
2021/12/25 06:21:26;;;;;;;29.13;13.37;;;;;;;-145.18;100.00;47687.97;5048834;28;20064;-70
2021/12/25 06:23:51;;;;;;;26.60;13.47;;;;;;;-145.18;100.00;47672.34;5048673;28;20095;-70
2021/12/25 06:26:16;;;;;;;23.33;12.77;;;;;;;-145.18;100.00;47684.06;5048302;28;20506;-70
2021/12/25 06:28:42;;;;;;;32.03;15.63;;;;;;;-145.18;100.00;47684.06;5048868;28;20107;-70
2021/12/25 06:31:07;;;;;;;23.43;12.23;;;;;;;-145.18;100.00;47682.13;5048404;28;20470;-70
2021/12/25 06:33:33;;;;;;;23.27;12.57;;;;;;;-145.18;100.00;47713.38;5048418;28;20041;-70
2021/12/25 06:35:58;;;;;;;21.10;10.57;;;;;;;-145.18;100.00;47689.94;5048335;28;20047;-70
2021/12/25 06:38:23;;;;;;;27.30;11.60;;;;;;;-145.18;100.00;47680.16;5048378;28;20049;-70
2021/12/25 06:40:49;;;;;;;17.37;7.93;;;;;;;-145.18;100.00;47703.63;5048995;28;20040;-70
2021/12/25 06:43:14;;;;;;;27.40;11.20;;;;;;;-145.18;100.00;47670.41;5048570;28;20056;-70
2021/12/25 06:45:39;;;;;;;21.67;12.60;;;;;;;-145.18;100.00;47691.91;5048070;28;20048;-70
2021/12/25 06:48:05;;;;;;;21.73;11.63;;;;;;;-145.18;100.00;47689.94;5048736;28;20037;-70
2021/12/25 06:50:30;;;;;;;19.53;10.83;;;;;;;-145.18;100.00;47691.91;5048143;28;20136;-70
2021/12/25 06:52:55;;;;;;;18.10;9.67;;;;;;;-145.18;100.00;47695.81;5049399;28;20060;-70
2021/12/25 06:55:21;;;;;;;17.33;9.83;;;;;;;-145.18;100.00;47715.34;5030061;28;20045;-69
2021/12/25 06:57:54;;;;;;;17.50;11.07;;;;;;;-145.18;100.00;47707.53;5041199;28;20518;-69
2021/12/25 07:00:21;;;;;;;18.90;9.20;;;;;;;-145.18;100.00;47699.72;5038944;28;20044;-70
2021/12/25 07:02:46;;;;;;;20.55;10.65;;;;;;;-145.18;100.00;47723.16;5048114;28;20037;-70
2021/12/25 07:05:12;;;;;;;16.30;8.80;;;;;;;-145.18;100.00;47727.06;5047877;28;20036;-70
2021/12/25 07:07:38;;;;;;;22.13;7.73;;;;;;;-145.18;100.00;47699.72;5047528;28;20052;-71
2021/12/25 07:10:05;;;;;;;15.13;7.30;;;;;;;-145.18;100.00;47705.56;5047687;28;20045;-72
2021/12/25 07:12:35;;;;;;;11.48;6.63;;;;;;;-145.18;100.00;47713.38;5048019;28;20096;-72
2021/12/25 07:15:03;;;;;;;8.85;5.43;;;;;;;-145.18;100.00;47721.19;5047515;28;20037;-71
2021/12/25 07:17:28;;;;;;;8.55;5.00;;;;;;;-145.18;100.00;47727.06;5047209;28;20048;-72
2021/12/25 07:19:53;;;;;;;11.17;5.70;;;;;;;-145.18;100.00;47730.97;5038697;28;20033;-72
2021/12/25 07:22:18;;;;;;;6.93;4.30;;;;;;;-145.18;100.00;47715.34;5027091;28;20099;-72
2021/12/25 07:24:44;;;;;;;5.00;3.23;;;;;;;-145.18;100.00;47746.59;5040886;28;20078;-72
2021/12/25 07:27:09;;;;;;;9.37;4.67;;;;;;;-145.18;100.00;47740.75;5047510;28;20069;-72
2021/12/25 07:29:37;;;;;;;8.70;4.70;;;;;;;-145.18;100.00;47742.69;5046411;28;20068;-72
2021/12/25 07:32:02;;;;;;;6.82;3.35;;;;;;;-145.18;100.00;47715.34;5047105;28;20490;-72
2021/12/25 07:34:28;;;;;;;7.60;4.17;;;;;;;-145.18;100.00;47709.47;5042349;28;20045;-71
2021/12/25 07:36:53;;;;;;;8.07;3.90;;;;;;;-145.18;100.00;47727.06;5047428;28;20040;-71
2021/12/25 07:39:19;;;;;;;5.30;3.17;;;;;;;-145.18;100.00;47744.66;5045746;28;20040;-72
2021/12/25 07:41:44;;;;;;;8.20;3.80;;;;;;;-145.18;100.00;47738.78;5018432;28;20040;-71
2021/12/25 07:44:09;;;;;;;11.03;4.40;;;;;;;-145.18;100.00;47746.59;5043781;28;20063;-72
2021/12/25 07:46:35;;;;;;;11.37;4.30;;;;;;;-145.18;100.00;47734.88;5045722;28;20053;-72
2021/12/25 07:49:00;;;;;;;5.63;3.63;;;;;;;-145.18;100.00;47744.66;5046070;28;20489;-72
2021/12/25 07:51:26;;;;;;;6.00;4.50;;;;;;;-145.18;100.00;47762.22;5046430;28;20124;-72
2021/12/25 07:53:51;;;;;;;9.27;4.23;;;;;;;-145.18;100.00;47734.88;5046393;28;20037;-72
2021/12/25 07:56:16;;;;;;;6.47;3.27;;;;;;;-145.18;100.00;47742.69;5035010;28;20049;-72
2021/12/25 07:58:42;;;;;;;7.27;3.20;;;;;;;-145.18;100.00;47760.28;5019484;28;20063;-72
2021/12/25 08:01:09;;;;;;;8.63;4.80;;;;;;;-145.18;100.00;47705.56;5033217;28;20041;-72
2021/12/25 08:03:35;;;;;;;11.45;5.40;;;;;;;-145.18;100.00;47729.00;5029745;28;20379;-71
2021/12/25 08:06:01;;;;;;;7.50;4.57;;;;;;;-145.18;100.00;47748.56;5040762;28;20102;-71
2021/12/25 08:08:26;;;;;;;7.85;3.67;;;;;;;-145.18;100.00;47750.50;5031452;28;20072;-72
2021/12/25 08:10:52;;;;;;;9.03;4.87;;;;;;;-145.18;100.00;47732.94;5032468;28;20459;-71
2021/12/25 08:13:17;;;;;;;8.57;5.20;;;;;;;-145.18;100.00;47730.97;5034149;28;20051;-71
2021/12/25 08:15:43;;;;;;;10.63;5.33;;;;;;;-145.18;100.00;47736.84;5030831;28;20041;-71
2021/12/25 08:18:09;;;;;;;8.37;5.00;;;;;;;-145.18;100.00;47754.41;5032872;28;20124;-71
2021/12/25 08:20:35;;;;;;;8.90;5.10;;;;;;;-145.18;100.00;47738.78;5035505;28;20119;-72
2021/12/25 08:23:01;;;;;;;8.07;3.67;;;;;;;-145.18;100.00;47750.50;5045497;28;20120;-72
2021/12/25 08:25:26;;;;;;;9.27;5.37;;;;;;;-145.18;100.00;47760.28;5042972;28;20048;-72
2021/12/25 08:27:53;;;;;;;9.17;4.93;;;;;;;-145.18;100.00;47738.78;5047089;28;20128;-72
2021/12/25 08:30:21;;;;;;;10.98;5.68;;;;;;;-145.18;100.00;47756.38;5045710;28;20134;-72
2021/12/25 08:32:48;;;;;;;9.10;4.97;;;;;;;-145.18;100.00;47772.00;5046245;28;20466;-72
2021/12/25 08:35:15;;;;;;;9.40;4.13;;;;;;;-145.18;100.00;47762.22;5043358;28;20059;-72
2021/12/25 08:37:43;;;;;;;8.55;4.65;;;;;;;-145.18;100.00;47754.41;5042090;28;20037;-72
2021/12/25 08:40:10;;;;;;;5.45;2.85;;;;;;;-145.18;100.00;47760.28;5045639;28;20049;-72
2021/12/25 08:42:36;;;;;;;9.23;4.47;;;;;;;-145.18;100.00;47775.91;5045541;28;20056;-72
2021/12/25 08:47:32;;;;;;;9.77;5.57;;;;;;;-145.18;100.00;47754.41;5042491;28;20049;-72
2021/12/25 08:49:57;;;;;;;8.20;4.35;;;;;;;-145.18;100.00;47740.75;5043403;28;20044;-72
2021/12/25 08:52:24;;;;;;;11.20;4.80;;;;;;;-145.18;100.00;47754.41;5045532;28;20494;-72
2021/12/25 08:54:51;;;;;;;9.25;4.75;;;;;;;-145.18;100.00;47752.47;5044937;28;20033;-72
2021/12/25 08:57:19;;;;;;;11.45;5.95;;;;;;;-145.18;100.00;47777.88;5042508;28;20064;-72
2021/12/25 08:59:46;;;;;;;9.77;6.05;;;;;;;-145.18;100.00;47713.38;5045349;28;20518;-72
2021/12/25 09:02:16;;;;;;;8.57;5.30;;;;;;;-145.18;100.00;47770.03;5045902;28;20123;-72
2021/12/25 09:04:44;;;;;;;9.82;4.15;;;;;;;-145.18;100.00;47768.09;5045324;28;20037;-72
2021/12/25 09:07:11;;;;;;;11.45;6.28;;;;;;;-145.18;100.00;47752.47;5046104;28;20034;-72
2021/12/25 09:09:37;;;;;;;7.05;4.18;;;;;;;-145.18;100.00;47760.28;5041167;28;20525;-72
2021/12/25 09:12:04;;;;;;;14.13;6.30;;;;;;;-145.18;100.00;47740.75;5045765;28;20087;-72
2021/12/25 09:14:29;;;;;;;7.63;5.03;;;;;;;-145.18;100.00;47779.81;5033675;28;20099;-71
2021/12/25 09:16:55;;;;;;;9.57;5.70;;;;;;;-145.18;100.00;47738.78;5025500;28;20041;-72
2021/12/25 09:19:20;;;;;;;5.77;3.87;;;;;;;-145.18;100.00;47758.31;5038584;28;20041;-72
2021/12/25 09:21:46;;;;;;;7.70;4.17;;;;;;;-145.18;100.00;47758.31;5045957;28;20090;-72
2021/12/25 09:24:12;;;;;;;7.63;4.13;;;;;;;-145.18;100.00;47748.56;5045549;28;20094;-72
2021/12/25 09:26:37;;;;;;;6.50;3.67;;;;;;;-145.18;100.00;47748.56;5043276;28;20041;-72
2021/12/25 09:29:03;;;;;;;9.83;5.40;;;;;;;-145.18;100.00;47744.66;5028591;28;20274;-72
2021/12/25 09:31:29;;;;;;;5.80;3.92;;;;;;;-145.18;100.00;47729.00;5025640;28;20411;-72
2021/12/25 09:33:55;;;;;;;10.80;3.70;;;;;;;-145.18;100.00;47754.41;5025544;28;20040;-72
2021/12/25 09:36:21;;;;;;;6.70;4.07;;;;;;;-145.18;100.00;47744.66;5025555;28;20310;-71
2021/12/25 09:38:48;;;;;;;8.30;3.95;;;;;;;-145.18;100.00;47744.66;5026617;28;20040;-72
2021/12/25 09:41:16;;;;;;;6.35;3.47;;;;;;;-145.18;100.00;47772.00;5026440;28;20099;-72
2021/12/25 09:43:44;;;;;;;12.25;5.18;;;;;;;-145.18;100.00;47740.75;5031359;28;20045;-72
2021/12/25 09:46:10;;;;;;;8.07;4.72;;;;;;;-145.18;100.00;47730.97;5044294;28;20036;-72
2021/12/25 09:48:36;;;;;;;6.03;2.90;;;;;;;-145.18;100.00;47754.41;5045343;28;20044;-72
2021/12/25 09:51:02;;;;;;;6.97;3.42;;;;;;;-145.18;100.00;47762.22;5045631;28;20509;-72
2021/12/25 09:53:28;;;;;;;8.55;4.97;;;;;;;-145.18;100.00;47762.22;5045854;28;20456;-72
2021/12/25 09:55:55;;;;;;;9.95;6.20;;;;;;;-145.18;100.00;47773.97;5045672;28;20037;-72
2021/12/25 09:58:22;;;;;;;10.45;5.72;;;;;;;-145.18;100.00;47756.38;5042674;28;20079;-72
2021/12/25 10:00:48;;;;;;;10.63;6.20;;;;;;;-145.18;100.00;47750.50;5043894;28;20494;-72
2021/12/25 10:03:14;;;;;;;11.10;6.15;;;;;;;-145.18;100.00;47762.22;5032087;28;20065;-72
2021/12/25 10:05:44;;;;;;;8.30;4.40;;;;;;;-145.18;100.00;47744.66;5033737;28;20687;-72
2021/12/25 10:08:11;;;;;;;6.60;3.97;;;;;;;-145.18;100.00;47764.19;5033683;28;20600;-72
2021/12/25 10:10:37;;;;;;;10.60;5.07;;;;;;;-145.18;100.00;47766.13;5040452;28;20585;-72
2021/12/25 10:13:03;;;;;;;10.07;5.00;;;;;;;-145.18;100.00;47754.41;5036321;28;20155;-72
2021/12/25 10:15:29;;;;;;;11.32;5.82;;;;;;;-145.18;100.00;47742.69;5048572;28;20037;-72
2021/12/25 10:17:57;;;;;;;11.18;4.97;;;;;;;-145.18;100.00;47752.47;5039094;28;20068;-72
2021/12/25 10:20:31;;;;;;;9.35;4.85;;;;;;;-145.18;100.00;47762.22;5048411;28;20045;-72
2021/12/25 10:23:10;;;;;;;10.55;5.22;;;;;;;-145.18;100.00;47779.81;5031480;28;20601;-72
2021/12/25 10:25:56;;;;;;;7.35;4.82;;;;;;;-145.18;100.00;47777.88;5048148;28;20041;-72
2021/12/25 10:28:34;;;;;;;10.63;5.25;;;;;;;-145.18;100.00;47777.88;5049072;28;20126;-72
2021/12/25 10:31:05;;;;;;;10.40;4.78;;;;;;;-145.18;100.00;47777.88;5039535;28;20041;-73
2021/12/25 10:33:38;;;;;;;6.05;4.35;;;;;;;-145.18;100.00;47742.69;5048863;28;20040;-72
2021/12/25 10:36:21;;;;;;;7.43;4.57;;;;;;;-145.18;100.00;47746.59;5048588;28;20075;-72
2021/12/25 10:39:05;;;;;;;6.85;4.00;;;;;;;-145.18;100.00;47748.56;5031372;28;20490;-72
2021/12/25 10:41:35;;;;;;;8.05;4.50;;;;;;;-145.18;100.00;47730.97;5048290;28;20037;-73
2021/12/25 10:44:32;;;;;;;5.82;3.75;;;;;;;-145.18;100.00;47723.16;5048360;28;20049;-72
2021/12/25 10:47:04;;;;;;;7.22;3.00;;;;;;;-145.18;100.00;47732.94;5048021;28;20049;-72
2021/12/25 10:49:38;;;;;;;6.40;3.47;;;;;;;-145.18;100.00;47746.59;5047833;28;20132;-72
2021/12/25 10:52:11;;;;;;;6.97;3.88;;;;;;;-145.18;100.00;47713.38;5042548;28;20045;-72
2021/12/25 10:55:03;;;;;;;6.03;2.70;;;;;;;-145.18;100.00;47748.56;5031006;28;20137;-73
2021/12/25 10:57:39;;;;;;;7.00;2.97;;;;;;;-145.18;100.00;47707.53;5048328;28;20172;-71
2021/12/25 11:00:27;;;;;;;;;;;;;;;-145.18;100.00;47697.75;5048684;28;20040;-72
2021/12/25 11:02:58;;;;;;;5.93;3.28;;;;;;;-145.18;100.00;47715.34;5049042;28;19916;-71
2021/12/25 11:05:25;;;;;;;5.28;3.15;;;;;;;-145.18;100.00;47682.13;5048160;28;20037;-71
2021/12/25 11:08:09;;;;;;;7.40;2.30;;;;;;;-145.18;100.00;47660.63;5031025;28;20091;-71
2021/12/25 11:10:45;;;;;;;3.42;2.05;;;;;;;-145.18;100.00;47658.69;5048100;28;20045;-71
2021/12/25 11:13:20;;;;;;;2.75;1.60;;;;;;;-145.18;100.00;47668.44;5048579;28;20048;-71
2021/12/25 11:15:46;;;;;;;4.40;1.55;;;;;;;-145.18;100.00;47668.44;5047275;28;20032;-71
2021/12/25 11:18:13;;;;;;;11.27;2.43;;;;;;;-145.18;100.00;47672.34;5048140;28;20122;-71
2021/12/25 11:20:40;;;;;;;3.92;1.48;;;;;;;-145.18;100.00;47687.97;5047456;28;20286;-71
2021/12/25 11:23:11;;;;;;;3.63;1.27;;;;;;;-145.18;100.00;47693.84;5046833;28;20041;-71
2021/12/25 11:25:38;;;;;;;4.13;1.70;;;;;;;-145.18;100.00;47676.25;5047084;28;20040;-71
2021/12/25 11:28:10;;;;;;;1.73;0.88;;;;;;;-145.18;100.00;47670.41;5047951;28;20063;-71
2021/12/25 11:30:39;;;;;;;2.53;1.45;;;;;;;-145.18;100.00;47686.03;5046054;28;20140;-71
2021/12/25 11:33:04;;;;;;;1.70;0.82;;;;;;;-145.18;100.00;47695.81;5046170;28;20543;-71
2021/12/25 11:35:34;;;;;;;2.10;1.17;;;;;;;-145.18;100.00;47695.81;5046138;28;20039;-71
2021/12/25 11:38:00;;;;;;;2.53;1.17;;;;;;;-145.18;100.00;47672.34;5048343;28;20167;-71
2021/12/25 11:40:29;;;;;;;3.38;1.70;;;;;;;-145.18;100.00;47658.69;5048171;28;20458;-71
2021/12/25 11:42:57;;;;;;;2.95;1.63;;;;;;;-145.18;100.00;47664.53;5047851;28;20106;-71
2021/12/25 11:45:32;;;;;;;2.47;1.35;;;;;;;-145.18;100.00;47664.53;5047253;28;20048;-72
2021/12/25 11:48:01;;;;;;;3.58;0.90;;;;;;;-145.18;100.00;47666.50;5047950;28;20080;-71
2021/12/25 11:50:40;;;;;;;3.22;1.35;;;;;;;-145.18;100.00;47682.13;5046761;28;20040;-71
2021/12/25 11:58:44;;;;;;;1.70;1.05;;;;;;;-145.18;100.00;47656.72;5036747;28;20080;-72
2021/12/25 12:01:20;;;;;;;4.43;1.15;;;;;;;-145.18;100.00;47637.19;5040810;28;20506;-71
2021/12/25 12:03:52;;;;;;;4.00;1.50;;;;;;;-145.18;100.00;47666.50;5047597;28;20745;-72
2021/12/25 12:06:19;;;;;;;2.42;1.27;;;;;;;-145.18;100.00;47645.00;5046390;28;20427;-72
2021/12/25 12:08:53;;;;;;;1.63;1.02;;;;;;;-145.18;100.00;47639.13;5047342;28;20048;-72
2021/12/25 12:11:29;;;;;;;2.40;0.85;;;;;;;-145.18;100.00;47631.31;5046405;28;20041;-72
2021/12/25 12:14:19;;;;;;;6.50;1.00;;;;;;;-145.18;100.00;47637.19;5046690;28;20063;-72
2021/12/25 12:16:54;;;;;;;4.03;1.30;;;;;;;-145.18;100.00;47613.75;5046766;28;20045;-72
2021/12/25 12:19:38;;;;;;;2.75;1.77;;;;;;;-145.18;100.00;47631.31;5046748;28;20052;-72
2021/12/25 12:22:27;;;;;;;2.15;1.20;;;;;;;-145.18;100.00;47621.56;5046633;28;20048;-73
2021/12/25 12:27:47;;;;;;;2.50;1.05;;;;;;;-145.18;100.00;47607.88;5046379;28;20047;-73
2021/12/25 12:31:02;;;;;;;1.08;0.70;;;;;;;-145.18;100.00;47617.66;5046749;28;20049;-72